sensor_id;sensor_type;location;lat;lon;timestamp;P1;durP1;ratioP1;P2;durP2;ratioP2
17574;SDS011;8906;43.590;1.418;2023-05-10T00:01:07;11.07;;;3.78;;
17574;SDS011;8906;43.590;1.418;2023-05-10T00:03:34;8.85;;;4.00;;
17574;SDS011;8906;43.590;1.418;2023-05-10T00:06:01;17.77;;;4.47;;
17574;SDS011;8906;43.590;1.418;2023-05-10T00:08:28;14.02;;;4.80;;
17574;SDS011;8906;43.590;1.418;2023-05-10T00:10:56;14.07;;;4.32;;
17574;SDS011;8906;43.590;1.418;2023-05-10T00:13:23;7.85;;;3.85;;
17574;SDS011;8906;43.590;1.418;2023-05-10T00:15:50;16.73;;;5.32;;
17574;SDS011;8906;43.590;1.418;2023-05-10T00:18:17;10.73;;;3.90;;
17574;SDS011;8906;43.590;1.418;2023-05-10T00:20:44;11.32;;;4.50;;
17574;SDS011;8906;43.590;1.418;2023-05-10T00:23:11;15.13;;;4.32;;
17574;SDS011;8906;43.590;1.418;2023-05-10T00:25:38;17.75;;;4.03;;
17574;SDS011;8906;43.590;1.418;2023-05-10T00:28:06;15.27;;;4.50;;
17574;SDS011;8906;43.590;1.418;2023-05-10T00:30:33;11.38;;;4.40;;
17574;SDS011;8906;43.590;1.418;2023-05-10T00:33:00;15.40;;;4.90;;
17574;SDS011;8906;43.590;1.418;2023-05-10T00:35:27;15.32;;;5.25;;
17574;SDS011;8906;43.590;1.418;2023-05-10T00:37:54;11.68;;;4.65;;
17574;SDS011;8906;43.590;1.418;2023-05-10T00:40:21;17.50;;;5.60;;
17574;SDS011;8906;43.590;1.418;2023-05-10T00:42:48;14.48;;;4.82;;
17574;SDS011;8906;43.590;1.418;2023-05-10T00:45:17;11.90;;;4.05;;
17574;SDS011;8906;43.590;1.418;2023-05-10T00:47:44;11.40;;;4.97;;
17574;SDS011;8906;43.590;1.418;2023-05-10T00:50:11;17.92;;;6.00;;
17574;SDS011;8906;43.590;1.418;2023-05-10T00:52:38;11.63;;;5.57;;
17574;SDS011;8906;43.590;1.418;2023-05-10T00:55:06;14.23;;;5.60;;
17574;SDS011;8906;43.590;1.418;2023-05-10T00:57:33;16.80;;;6.95;;
17574;SDS011;8906;43.590;1.418;2023-05-10T01:00:00;17.42;;;6.15;;
17574;SDS011;8906;43.590;1.418;2023-05-10T01:02:30;14.07;;;6.32;;
17574;SDS011;8906;43.590;1.418;2023-05-10T01:04:57;11.68;;;5.07;;
17574;SDS011;8906;43.590;1.418;2023-05-10T01:07:24;17.42;;;4.93;;
17574;SDS011;8906;43.590;1.418;2023-05-10T01:09:51;14.30;;;5.18;;
17574;SDS011;8906;43.590;1.418;2023-05-10T01:12:18;16.23;;;4.78;;
17574;SDS011;8906;43.590;1.418;2023-05-10T01:14:45;19.75;;;5.88;;
17574;SDS011;8906;43.590;1.418;2023-05-10T01:17:12;13.93;;;5.72;;
17574;SDS011;8906;43.590;1.418;2023-05-10T01:19:41;11.93;;;4.57;;
17574;SDS011;8906;43.590;1.418;2023-05-10T01:22:11;10.55;;;4.95;;
17574;SDS011;8906;43.590;1.418;2023-05-10T01:25:06;9.45;;;4.63;;
17574;SDS011;8906;43.590;1.418;2023-05-10T01:33:41;17.35;;;5.78;;
17574;SDS011;8906;43.590;1.418;2023-05-10T01:36:14;15.52;;;5.07;;
17574;SDS011;8906;43.590;1.418;2023-05-10T01:38:51;12.50;;;3.60;;
17574;SDS011;8906;43.590;1.418;2023-05-10T01:41:28;10.60;;;4.00;;
17574;SDS011;8906;43.590;1.418;2023-05-10T01:44:04;12.18;;;3.75;;
17574;SDS011;8906;43.590;1.418;2023-05-10T01:46:38;13.32;;;3.78;;
17574;SDS011;8906;43.590;1.418;2023-05-10T01:49:08;13.02;;;4.43;;
17574;SDS011;8906;43.590;1.418;2023-05-10T01:51:38;19.80;;;4.43;;
17574;SDS011;8906;43.590;1.418;2023-05-10T01:54:08;7.25;;;3.25;;
17574;SDS011;8906;43.590;1.418;2023-05-10T01:56:38;8.30;;;3.97;;
17574;SDS011;8906;43.590;1.418;2023-05-10T01:59:09;9.65;;;3.42;;
17574;SDS011;8906;43.590;1.418;2023-05-10T02:01:39;14.52;;;3.15;;
17574;SDS011;8906;43.590;1.418;2023-05-10T02:04:08;10.32;;;3.75;;
17574;SDS011;8906;43.590;1.418;2023-05-10T02:06:38;11.88;;;4.20;;
17574;SDS011;8906;43.590;1.418;2023-05-10T02:09:06;9.15;;;3.70;;
17574;SDS011;8906;43.590;1.418;2023-05-10T02:11:36;10.48;;;3.15;;
17574;SDS011;8906;43.590;1.418;2023-05-10T02:14:05;12.05;;;3.85;;
17574;SDS011;8906;43.590;1.418;2023-05-10T02:16:35;15.93;;;3.85;;
17574;SDS011;8906;43.590;1.418;2023-05-10T02:19:04;15.32;;;6.00;;
17574;SDS011;8906;43.590;1.418;2023-05-10T02:21:34;15.82;;;6.43;;
17574;SDS011;8906;43.590;1.418;2023-05-10T02:24:03;12.32;;;6.10;;
17574;SDS011;8906;43.590;1.418;2023-05-10T02:26:31;19.83;;;7.07;;
17574;SDS011;8906;43.590;1.418;2023-05-10T02:29:00;12.32;;;4.72;;
17574;SDS011;8906;43.590;1.418;2023-05-10T02:31:29;15.02;;;4.75;;
17574;SDS011;8906;43.590;1.418;2023-05-10T02:33:58;11.65;;;3.60;;
17574;SDS011;8906;43.590;1.418;2023-05-10T02:36:26;7.38;;;3.25;;
17574;SDS011;8906;43.590;1.418;2023-05-10T02:38:55;12.63;;;4.53;;
17574;SDS011;8906;43.590;1.418;2023-05-10T02:41:23;10.27;;;3.75;;
17574;SDS011;8906;43.590;1.418;2023-05-10T02:43:51;10.60;;;2.97;;
17574;SDS011;8906;43.590;1.418;2023-05-10T02:46:22;8.25;;;3.75;;
17574;SDS011;8906;43.590;1.418;2023-05-10T02:48:49;20.27;;;5.38;;
17574;SDS011;8906;43.590;1.418;2023-05-10T02:51:16;12.55;;;3.72;;
17574;SDS011;8906;43.590;1.418;2023-05-10T02:53:46;9.88;;;3.90;;
17574;SDS011;8906;43.590;1.418;2023-05-10T02:56:19;19.92;;;4.07;;
17574;SDS011;8906;43.590;1.418;2023-05-10T02:58:50;11.90;;;4.07;;
17574;SDS011;8906;43.590;1.418;2023-05-10T03:01:17;15.95;;;5.80;;
17574;SDS011;8906;43.590;1.418;2023-05-10T03:03:44;13.07;;;4.55;;
17574;SDS011;8906;43.590;1.418;2023-05-10T03:06:11;11.20;;;3.88;;
17574;SDS011;8906;43.590;1.418;2023-05-10T03:08:38;13.00;;;4.13;;
17574;SDS011;8906;43.590;1.418;2023-05-10T03:11:09;17.45;;;4.32;;
17574;SDS011;8906;43.590;1.418;2023-05-10T03:13:53;7.35;;;3.05;;
17574;SDS011;8906;43.590;1.418;2023-05-10T03:16:34;13.07;;;4.00;;
17574;SDS011;8906;43.590;1.418;2023-05-10T03:19:17;12.88;;;2.75;;
17574;SDS011;8906;43.590;1.418;2023-05-10T03:21:50;9.18;;;2.30;;
17574;SDS011;8906;43.590;1.418;2023-05-10T03:24:23;7.60;;;3.13;;
17574;SDS011;8906;43.590;1.418;2023-05-10T03:26:55;9.90;;;2.60;;
17574;SDS011;8906;43.590;1.418;2023-05-10T03:29:23;6.55;;;2.38;;
17574;SDS011;8906;43.590;1.418;2023-05-10T03:31:52;8.05;;;2.50;;
17574;SDS011;8906;43.590;1.418;2023-05-10T03:34:22;13.98;;;3.70;;
17574;SDS011;8906;43.590;1.418;2023-05-10T03:36:50;9.93;;;3.05;;
17574;SDS011;8906;43.590;1.418;2023-05-10T03:39:17;8.20;;;2.40;;
17574;SDS011;8906;43.590;1.418;2023-05-10T03:41:44;9.73;;;2.72;;
17574;SDS011;8906;43.590;1.418;2023-05-10T03:44:12;7.35;;;2.55;;
17574;SDS011;8906;43.590;1.418;2023-05-10T03:46:39;10.52;;;3.35;;
17574;SDS011;8906;43.590;1.418;2023-05-10T03:49:06;7.25;;;3.20;;
17574;SDS011;8906;43.590;1.418;2023-05-10T03:51:33;9.32;;;2.28;;
17574;SDS011;8906;43.590;1.418;2023-05-10T03:54:00;7.97;;;2.35;;
17574;SDS011;8906;43.590;1.418;2023-05-10T03:56:29;6.47;;;3.00;;
17574;SDS011;8906;43.590;1.418;2023-05-10T03:58:56;4.95;;;3.72;;
17574;SDS011;8906;43.590;1.418;2023-05-10T04:01:25;6.75;;;2.30;;
17574;SDS011;8906;43.590;1.418;2023-05-10T04:03:52;5.85;;;1.83;;
17574;SDS011;8906;43.590;1.418;2023-05-10T04:06:19;8.45;;;2.88;;
17574;SDS011;8906;43.590;1.418;2023-05-10T04:08:46;11.50;;;3.20;;
17574;SDS011;8906;43.590;1.418;2023-05-10T04:11:12;15.40;;;3.97;;
17574;SDS011;8906;43.590;1.418;2023-05-10T04:13:39;13.70;;;3.38;;
17574;SDS011;8906;43.590;1.418;2023-05-10T04:16:08;6.50;;;2.25;;
17574;SDS011;8906;43.590;1.418;2023-05-10T04:18:36;9.23;;;3.15;;
17574;SDS011;8906;43.590;1.418;2023-05-10T04:21:10;14.48;;;4.22;;
17574;SDS011;8906;43.590;1.418;2023-05-10T04:23:38;10.00;;;3.28;;
17574;SDS011;8906;43.590;1.418;2023-05-10T04:26:05;7.65;;;2.10;;
17574;SDS011;8906;43.590;1.418;2023-05-10T04:28:32;9.80;;;3.85;;
17574;SDS011;8906;43.590;1.418;2023-05-10T04:31:00;13.75;;;3.08;;
17574;SDS011;8906;43.590;1.418;2023-05-10T04:33:28;11.77;;;3.92;;
17574;SDS011;8906;43.590;1.418;2023-05-10T04:35:57;13.68;;;3.10;;
17574;SDS011;8906;43.590;1.418;2023-05-10T04:38:24;9.55;;;3.08;;
17574;SDS011;8906;43.590;1.418;2023-05-10T04:40:51;9.98;;;3.13;;
17574;SDS011;8906;43.590;1.418;2023-05-10T04:43:18;13.10;;;4.30;;
17574;SDS011;8906;43.590;1.418;2023-05-10T04:45:46;13.13;;;4.05;;
17574;SDS011;8906;43.590;1.418;2023-05-10T04:48:12;13.27;;;3.50;;
17574;SDS011;8906;43.590;1.418;2023-05-10T04:50:40;7.22;;;3.33;;
17574;SDS011;8906;43.590;1.418;2023-05-10T04:53:08;9.68;;;2.92;;
17574;SDS011;8906;43.590;1.418;2023-05-10T04:55:35;7.90;;;3.13;;
17574;SDS011;8906;43.590;1.418;2023-05-10T04:58:02;15.73;;;4.10;;
17574;SDS011;8906;43.590;1.418;2023-05-10T05:00:29;11.20;;;3.65;;
17574;SDS011;8906;43.590;1.418;2023-05-10T05:02:56;10.30;;;3.15;;
17574;SDS011;8906;43.590;1.418;2023-05-10T05:05:23;7.82;;;2.80;;
17574;SDS011;8906;43.590;1.418;2023-05-10T05:07:50;10.65;;;3.70;;
17574;SDS011;8906;43.590;1.418;2023-05-10T05:10:19;9.85;;;4.28;;
17574;SDS011;8906;43.590;1.418;2023-05-10T05:12:46;14.40;;;3.80;;
17574;SDS011;8906;43.590;1.418;2023-05-10T05:15:13;14.20;;;3.25;;
17574;SDS011;8906;43.590;1.418;2023-05-10T05:17:41;10.30;;;3.75;;
17574;SDS011;8906;43.590;1.418;2023-05-10T05:20:09;9.18;;;2.75;;
17574;SDS011;8906;43.590;1.418;2023-05-10T05:22:36;9.77;;;3.40;;
17574;SDS011;8906;43.590;1.418;2023-05-10T05:25:04;9.90;;;4.32;;
17574;SDS011;8906;43.590;1.418;2023-05-10T05:27:33;12.32;;;3.65;;
17574;SDS011;8906;43.590;1.418;2023-05-10T05:30:00;11.88;;;3.35;;
17574;SDS011;8906;43.590;1.418;2023-05-10T05:32:27;15.80;;;3.08;;
17574;SDS011;8906;43.590;1.418;2023-05-10T05:34:54;9.98;;;4.00;;
17574;SDS011;8906;43.590;1.418;2023-05-10T05:37:21;11.00;;;4.05;;
17574;SDS011;8906;43.590;1.418;2023-05-10T05:39:49;8.57;;;2.90;;
17574;SDS011;8906;43.590;1.418;2023-05-10T05:42:16;10.00;;;3.35;;
17574;SDS011;8906;43.590;1.418;2023-05-10T05:44:45;11.77;;;4.25;;
17574;SDS011;8906;43.590;1.418;2023-05-10T05:47:12;6.90;;;2.85;;
17574;SDS011;8906;43.590;1.418;2023-05-10T05:49:39;11.43;;;3.50;;
17574;SDS011;8906;43.590;1.418;2023-05-10T05:52:06;8.05;;;2.47;;
17574;SDS011;8906;43.590;1.418;2023-05-10T05:54:32;9.73;;;4.18;;
17574;SDS011;8906;43.590;1.418;2023-05-10T05:57:00;9.48;;;3.28;;
17574;SDS011;8906;43.590;1.418;2023-05-10T05:59:27;13.68;;;4.75;;
17574;SDS011;8906;43.590;1.418;2023-05-10T06:01:55;11.18;;;3.03;;
17574;SDS011;8906;43.590;1.418;2023-05-10T06:04:22;7.00;;;3.25;;
17574;SDS011;8906;43.590;1.418;2023-05-10T06:06:49;14.10;;;3.67;;
17574;SDS011;8906;43.590;1.418;2023-05-10T06:09:16;13.73;;;3.45;;
17574;SDS011;8906;43.590;1.418;2023-05-10T06:11:43;12.23;;;2.95;;
17574;SDS011;8906;43.590;1.418;2023-05-10T06:14:10;8.23;;;3.80;;
17574;SDS011;8906;43.590;1.418;2023-05-10T06:16:37;9.63;;;3.67;;
17574;SDS011;8906;43.590;1.418;2023-05-10T06:19:05;10.32;;;3.80;;
17574;SDS011;8906;43.590;1.418;2023-05-10T06:21:32;14.73;;;3.33;;
17574;SDS011;8906;43.590;1.418;2023-05-10T06:23:59;14.90;;;3.67;;
17574;SDS011;8906;43.590;1.418;2023-05-10T06:26:26;8.30;;;2.55;;
17574;SDS011;8906;43.590;1.418;2023-05-10T06:28:53;10.55;;;3.50;;
17574;SDS011;8906;43.590;1.418;2023-05-10T06:31:20;5.20;;;2.78;;
17574;SDS011;8906;43.590;1.418;2023-05-10T06:33:47;8.55;;;2.60;;
17574;SDS011;8906;43.590;1.418;2023-05-10T06:36:15;6.75;;;3.20;;
17574;SDS011;8906;43.590;1.418;2023-05-10T06:38:42;10.35;;;3.83;;
17574;SDS011;8906;43.590;1.418;2023-05-10T06:41:09;8.05;;;3.85;;
17574;SDS011;8906;43.590;1.418;2023-05-10T06:43:35;12.65;;;4.13;;
17574;SDS011;8906;43.590;1.418;2023-05-10T06:46:05;11.65;;;4.10;;
17574;SDS011;8906;43.590;1.418;2023-05-10T06:48:32;14.02;;;4.40;;
17574;SDS011;8906;43.590;1.418;2023-05-10T06:50:59;8.40;;;3.65;;
17574;SDS011;8906;43.590;1.418;2023-05-10T06:53:28;9.70;;;3.70;;
17574;SDS011;8906;43.590;1.418;2023-05-10T06:55:55;10.65;;;2.45;;
17574;SDS011;8906;43.590;1.418;2023-05-10T06:58:22;15.93;;;4.65;;
17574;SDS011;8906;43.590;1.418;2023-05-10T07:00:49;9.35;;;3.58;;
17574;SDS011;8906;43.590;1.418;2023-05-10T07:03:16;9.07;;;2.22;;
17574;SDS011;8906;43.590;1.418;2023-05-10T07:05:43;10.45;;;3.50;;
17574;SDS011;8906;43.590;1.418;2023-05-10T07:08:09;11.23;;;3.97;;
17574;SDS011;8906;43.590;1.418;2023-05-10T07:10:38;11.95;;;4.07;;
17574;SDS011;8906;43.590;1.418;2023-05-10T07:13:05;12.60;;;3.30;;
17574;SDS011;8906;43.590;1.418;2023-05-10T07:15:32;13.05;;;3.03;;
17574;SDS011;8906;43.590;1.418;2023-05-10T07:17:58;11.23;;;3.58;;
17574;SDS011;8906;43.590;1.418;2023-05-10T07:20:25;14.05;;;4.30;;
17574;SDS011;8906;43.590;1.418;2023-05-10T07:22:52;16.83;;;4.25;;
17574;SDS011;8906;43.590;1.418;2023-05-10T07:25:19;14.23;;;4.07;;
17574;SDS011;8906;43.590;1.418;2023-05-10T07:27:47;12.75;;;3.72;;
17574;SDS011;8906;43.590;1.418;2023-05-10T07:30:14;14.00;;;3.95;;
17574;SDS011;8906;43.590;1.418;2023-05-10T07:32:41;12.40;;;3.40;;
17574;SDS011;8906;43.590;1.418;2023-05-10T07:35:08;8.02;;;3.30;;
17574;SDS011;8906;43.590;1.418;2023-05-10T07:37:35;18.00;;;4.30;;
17574;SDS011;8906;43.590;1.418;2023-05-10T07:40:02;7.57;;;2.80;;
17574;SDS011;8906;43.590;1.418;2023-05-10T07:42:30;9.88;;;3.75;;
17574;SDS011;8906;43.590;1.418;2023-05-10T07:44:58;14.85;;;3.60;;
17574;SDS011;8906;43.590;1.418;2023-05-10T07:47:25;7.20;;;2.80;;
17574;SDS011;8906;43.590;1.418;2023-05-10T07:49:52;9.32;;;3.35;;
17574;SDS011;8906;43.590;1.418;2023-05-10T07:52:18;9.68;;;3.22;;
17574;SDS011;8906;43.590;1.418;2023-05-10T07:54:45;9.30;;;2.97;;
17574;SDS011;8906;43.590;1.418;2023-05-10T07:57:12;11.90;;;4.13;;
17574;SDS011;8906;43.590;1.418;2023-05-10T07:59:42;6.68;;;2.97;;
17574;SDS011;8906;43.590;1.418;2023-05-10T08:02:11;10.73;;;3.42;;
17574;SDS011;8906;43.590;1.418;2023-05-10T08:04:38;9.85;;;4.22;;
17574;SDS011;8906;43.590;1.418;2023-05-10T08:07:05;8.90;;;3.75;;
17574;SDS011;8906;43.590;1.418;2023-05-10T08:09:32;12.98;;;4.32;;
17574;SDS011;8906;43.590;1.418;2023-05-10T08:11:59;12.27;;;3.97;;
17574;SDS011;8906;43.590;1.418;2023-05-10T08:14:27;7.90;;;2.70;;
17574;SDS011;8906;43.590;1.418;2023-05-10T08:16:55;10.55;;;3.60;;
17574;SDS011;8906;43.590;1.418;2023-05-10T08:19:23;9.05;;;2.97;;
17574;SDS011;8906;43.590;1.418;2023-05-10T08:21:50;7.03;;;3.00;;
17574;SDS011;8906;43.590;1.418;2023-05-10T08:24:18;9.45;;;3.22;;
17574;SDS011;8906;43.590;1.418;2023-05-10T08:26:45;9.23;;;2.78;;
17574;SDS011;8906;43.590;1.418;2023-05-10T08:29:12;8.30;;;3.28;;
17574;SDS011;8906;43.590;1.418;2023-05-10T08:31:39;7.03;;;2.60;;
17574;SDS011;8906;43.590;1.418;2023-05-10T08:34:06;13.18;;;2.50;;
17574;SDS011;8906;43.590;1.418;2023-05-10T08:36:34;8.57;;;2.97;;
17574;SDS011;8906;43.590;1.418;2023-05-10T08:39:01;12.48;;;3.55;;
17574;SDS011;8906;43.590;1.418;2023-05-10T08:41:28;14.07;;;4.53;;
17574;SDS011;8906;43.590;1.418;2023-05-10T08:43:59;12.75;;;2.85;;
17574;SDS011;8906;43.590;1.418;2023-05-10T08:46:30;5.68;;;2.47;;
17574;SDS011;8906;43.590;1.418;2023-05-10T08:48:59;9.25;;;2.95;;
17574;SDS011;8906;43.590;1.418;2023-05-10T08:51:31;9.20;;;2.72;;
17574;SDS011;8906;43.590;1.418;2023-05-10T08:54:07;7.40;;;2.33;;
17574;SDS011;8906;43.590;1.418;2023-05-10T08:56:34;6.00;;;2.33;;
17574;SDS011;8906;43.590;1.418;2023-05-10T08:59:02;7.07;;;2.40;;
17574;SDS011;8906;43.590;1.418;2023-05-10T09:01:29;6.97;;;3.13;;
17574;SDS011;8906;43.590;1.418;2023-05-10T09:03:57;3.65;;;1.67;;
17574;SDS011;8906;43.590;1.418;2023-05-10T09:06:25;5.03;;;2.53;;
17574;SDS011;8906;43.590;1.418;2023-05-10T09:08:52;6.15;;;2.10;;
17574;SDS011;8906;43.590;1.418;2023-05-10T09:11:20;5.60;;;2.05;;
17574;SDS011;8906;43.590;1.418;2023-05-10T09:13:48;6.57;;;2.67;;
17574;SDS011;8906;43.590;1.418;2023-05-10T09:16:15;11.75;;;2.72;;
17574;SDS011;8906;43.590;1.418;2023-05-10T09:18:42;10.40;;;2.95;;
17574;SDS011;8906;43.590;1.418;2023-05-10T09:21:09;7.53;;;2.53;;
17574;SDS011;8906;43.590;1.418;2023-05-10T09:23:36;5.10;;;2.22;;
17574;SDS011;8906;43.590;1.418;2023-05-10T09:26:03;6.80;;;1.85;;
17574;SDS011;8906;43.590;1.418;2023-05-10T09:28:32;5.35;;;2.03;;
17574;SDS011;8906;43.590;1.418;2023-05-10T09:31:00;4.65;;;1.83;;
17574;SDS011;8906;43.590;1.418;2023-05-10T09:33:27;6.60;;;1.83;;
17574;SDS011;8906;43.590;1.418;2023-05-10T09:35:53;7.15;;;2.88;;
17574;SDS011;8906;43.590;1.418;2023-05-10T09:38:20;7.32;;;1.88;;
17574;SDS011;8906;43.590;1.418;2023-05-10T09:40:50;7.07;;;1.95;;
17574;SDS011;8906;43.590;1.418;2023-05-10T09:43:19;7.65;;;2.63;;
17574;SDS011;8906;43.590;1.418;2023-05-10T09:45:48;4.32;;;1.83;;
17574;SDS011;8906;43.590;1.418;2023-05-10T09:48:15;12.48;;;2.50;;
17574;SDS011;8906;43.590;1.418;2023-05-10T09:50:42;6.53;;;2.25;;
17574;SDS011;8906;43.590;1.418;2023-05-10T09:53:09;11.10;;;2.83;;
17574;SDS011;8906;43.590;1.418;2023-05-10T09:55:42;4.13;;;1.45;;
17574;SDS011;8906;43.590;1.418;2023-05-10T09:58:14;7.63;;;2.03;;
17574;SDS011;8906;43.590;1.418;2023-05-10T10:00:41;6.88;;;2.05;;
17574;SDS011;8906;43.590;1.418;2023-05-10T10:03:13;6.50;;;2.70;;
17574;SDS011;8906;43.590;1.418;2023-05-10T10:05:41;4.05;;;1.95;;
17574;SDS011;8906;43.590;1.418;2023-05-10T10:08:09;5.10;;;2.25;;
17574;SDS011;8906;43.590;1.418;2023-05-10T10:10:36;7.05;;;2.58;;
17574;SDS011;8906;43.590;1.418;2023-05-10T10:13:05;3.88;;;2.05;;
17574;SDS011;8906;43.590;1.418;2023-05-10T10:15:33;5.38;;;2.03;;
17574;SDS011;8906;43.590;1.418;2023-05-10T10:18:00;5.88;;;2.25;;
17574;SDS011;8906;43.590;1.418;2023-05-10T10:20:30;2.88;;;1.42;;
17574;SDS011;8906;43.590;1.418;2023-05-10T10:22:57;5.90;;;1.98;;
17574;SDS011;8906;43.590;1.418;2023-05-10T10:25:24;3.80;;;2.03;;
17574;SDS011;8906;43.590;1.418;2023-05-10T10:27:56;5.82;;;2.15;;
17574;SDS011;8906;43.590;1.418;2023-05-10T10:30:35;3.88;;;1.90;;
17574;SDS011;8906;43.590;1.418;2023-05-10T10:33:18;4.68;;;1.77;;
17574;SDS011;8906;43.590;1.418;2023-05-10T10:36:01;6.53;;;1.80;;
17574;SDS011;8906;43.590;1.418;2023-05-10T10:41:29;4.28;;;2.33;;
17574;SDS011;8906;43.590;1.418;2023-05-10T10:46:59;5.63;;;2.10;;
17574;SDS011;8906;43.590;1.418;2023-05-10T10:49:27;6.75;;;1.85;;
17574;SDS011;8906;43.590;1.418;2023-05-10T10:52:20;5.20;;;2.00;;
17574;SDS011;8906;43.590;1.418;2023-05-10T10:54:51;7.10;;;2.28;;
17574;SDS011;8906;43.590;1.418;2023-05-10T10:57:20;5.93;;;1.95;;
17574;SDS011;8906;43.590;1.418;2023-05-10T10:59:51;5.57;;;1.83;;
17574;SDS011;8906;43.590;1.418;2023-05-10T11:08:10;7.75;;;2.28;;
17574;SDS011;8906;43.590;1.418;2023-05-10T11:10:52;6.75;;;2.33;;
17574;SDS011;8906;43.590;1.418;2023-05-10T11:13:32;9.38;;;2.40;;
17574;SDS011;8906;43.590;1.418;2023-05-10T11:16:09;7.82;;;2.13;;
17574;SDS011;8906;43.590;1.418;2023-05-10T11:18:40;9.43;;;3.08;;
17574;SDS011;8906;43.590;1.418;2023-05-10T11:21:18;3.60;;;1.88;;
17574;SDS011;8906;43.590;1.418;2023-05-10T11:23:50;7.95;;;2.50;;
17574;SDS011;8906;43.590;1.418;2023-05-10T11:26:21;15.40;;;8.43;;
17574;SDS011;8906;43.590;1.418;2023-05-10T11:28:51;6.00;;;2.58;;
17574;SDS011;8906;43.590;1.418;2023-05-10T11:31:20;5.78;;;3.58;;
17574;SDS011;8906;43.590;1.418;2023-05-10T11:33:50;10.30;;;2.83;;
17574;SDS011;8906;43.590;1.418;2023-05-10T11:36:18;3.67;;;2.05;;
17574;SDS011;8906;43.590;1.418;2023-05-10T11:38:47;4.68;;;2.38;;
17574;SDS011;8906;43.590;1.418;2023-05-10T11:41:16;4.38;;;1.90;;
17574;SDS011;8906;43.590;1.418;2023-05-10T11:43:46;3.03;;;1.40;;
17574;SDS011;8906;43.590;1.418;2023-05-10T11:46:16;5.07;;;1.77;;
17574;SDS011;8906;43.590;1.418;2023-05-10T11:48:45;6.47;;;1.67;;
17574;SDS011;8906;43.590;1.418;2023-05-10T11:51:15;1.95;;;1.20;;
17574;SDS011;8906;43.590;1.418;2023-05-10T11:53:45;4.30;;;1.60;;
17574;SDS011;8906;43.590;1.418;2023-05-10T11:56:14;3.80;;;1.50;;
17574;SDS011;8906;43.590;1.418;2023-05-10T11:58:41;3.13;;;1.52;;
17574;SDS011;8906;43.590;1.418;2023-05-10T12:01:08;3.38;;;1.02;;
17574;SDS011;8906;43.590;1.418;2023-05-10T12:03:36;3.80;;;1.48;;
17574;SDS011;8906;43.590;1.418;2023-05-10T12:06:03;5.03;;;1.70;;
17574;SDS011;8906;43.590;1.418;2023-05-10T12:08:31;3.22;;;1.20;;
17574;SDS011;8906;43.590;1.418;2023-05-10T12:11:04;3.80;;;1.60;;
17574;SDS011;8906;43.590;1.418;2023-05-10T12:13:36;2.60;;;1.40;;
17574;SDS011;8906;43.590;1.418;2023-05-10T12:16:12;1.95;;;1.25;;
17574;SDS011;8906;43.590;1.418;2023-05-10T12:18:40;11.27;;;1.80;;
17574;SDS011;8906;43.590;1.418;2023-05-10T12:21:07;7.30;;;1.23;;
17574;SDS011;8906;43.590;1.418;2023-05-10T12:23:36;6.90;;;1.45;;
17574;SDS011;8906;43.590;1.418;2023-05-10T12:26:04;2.40;;;1.20;;
17574;SDS011;8906;43.590;1.418;2023-05-10T12:28:33;6.00;;;2.22;;
17574;SDS011;8906;43.590;1.418;2023-05-10T12:31:00;5.57;;;1.98;;
17574;SDS011;8906;43.590;1.418;2023-05-10T12:33:34;8.00;;;2.00;;
17574;SDS011;8906;43.590;1.418;2023-05-10T12:36:04;3.95;;;1.40;;
17574;SDS011;8906;43.590;1.418;2023-05-10T12:38:32;5.65;;;1.92;;
17574;SDS011;8906;43.590;1.418;2023-05-10T12:41:00;6.72;;;2.10;;
17574;SDS011;8906;43.590;1.418;2023-05-10T12:43:28;6.68;;;1.55;;
17574;SDS011;8906;43.590;1.418;2023-05-10T12:45:57;5.28;;;1.25;;
17574;SDS011;8906;43.590;1.418;2023-05-10T12:48:24;4.50;;;1.27;;
17574;SDS011;8906;43.590;1.418;2023-05-10T12:50:53;4.40;;;0.93;;
17574;SDS011;8906;43.590;1.418;2023-05-10T12:53:20;1.88;;;1.10;;
17574;SDS011;8906;43.590;1.418;2023-05-10T12:55:47;3.10;;;1.25;;
17574;SDS011;8906;43.590;1.418;2023-05-10T12:58:14;2.10;;;0.93;;
17574;SDS011;8906;43.590;1.418;2023-05-10T13:00:41;2.13;;;1.27;;
17574;SDS011;8906;43.590;1.418;2023-05-10T13:03:10;2.35;;;1.00;;
17574;SDS011;8906;43.590;1.418;2023-05-10T13:05:37;3.35;;;1.15;;
17574;SDS011;8906;43.590;1.418;2023-05-10T13:08:04;1.88;;;0.80;;
17574;SDS011;8906;43.590;1.418;2023-05-10T13:10:31;4.30;;;0.70;;
17574;SDS011;8906;43.590;1.418;2023-05-10T13:12:59;2.63;;;0.77;;
17574;SDS011;8906;43.590;1.418;2023-05-10T13:15:26;2.05;;;0.85;;
17574;SDS011;8906;43.590;1.418;2023-05-10T13:17:53;3.70;;;1.27;;
17574;SDS011;8906;43.590;1.418;2023-05-10T13:20:22;3.42;;;1.00;;
17574;SDS011;8906;43.590;1.418;2023-05-10T13:22:49;4.07;;;1.00;;
17574;SDS011;8906;43.590;1.418;2023-05-10T13:25:16;4.93;;;1.10;;
17574;SDS011;8906;43.590;1.418;2023-05-10T13:27:43;2.72;;;1.20;;
17574;SDS011;8906;43.590;1.418;2023-05-10T13:30:10;3.13;;;1.08;;
17574;SDS011;8906;43.590;1.418;2023-05-10T13:32:37;4.00;;;1.95;;
17574;SDS011;8906;43.590;1.418;2023-05-10T13:35:05;3.15;;;0.77;;
17574;SDS011;8906;43.590;1.418;2023-05-10T13:37:33;3.75;;;1.35;;
17574;SDS011;8906;43.590;1.418;2023-05-10T13:40:02;2.67;;;0.88;;
17574;SDS011;8906;43.590;1.418;2023-05-10T13:42:30;2.75;;;1.00;;
17574;SDS011;8906;43.590;1.418;2023-05-10T13:44:59;2.22;;;1.05;;
17574;SDS011;8906;43.590;1.418;2023-05-10T13:47:26;4.32;;;1.88;;
17574;SDS011;8906;43.590;1.418;2023-05-10T13:49:53;3.90;;;1.20;;
17574;SDS011;8906;43.590;1.418;2023-05-10T13:52:21;2.03;;;0.98;;
17574;SDS011;8906;43.590;1.418;2023-05-10T13:54:49;4.38;;;1.40;;
17574;SDS011;8906;43.590;1.418;2023-05-10T13:57:17;3.97;;;1.70;;
17574;SDS011;8906;43.590;1.418;2023-05-10T13:59:44;4.05;;;1.30;;
17574;SDS011;8906;43.590;1.418;2023-05-10T14:02:11;6.25;;;1.25;;
17574;SDS011;8906;43.590;1.418;2023-05-10T14:04:38;5.82;;;1.83;;
17574;SDS011;8906;43.590;1.418;2023-05-10T14:07:05;4.07;;;1.20;;
17574;SDS011;8906;43.590;1.418;2023-05-10T14:09:32;3.63;;;1.25;;
17574;SDS011;8906;43.590;1.418;2023-05-10T14:12:00;3.88;;;1.42;;
17574;SDS011;8906;43.590;1.418;2023-05-10T14:14:27;5.60;;;1.70;;
17574;SDS011;8906;43.590;1.418;2023-05-10T14:16:54;5.05;;;1.92;;
17574;SDS011;8906;43.590;1.418;2023-05-10T14:19:21;5.82;;;1.45;;
17574;SDS011;8906;43.590;1.418;2023-05-10T14:21:48;11.60;;;1.75;;
17574;SDS011;8906;43.590;1.418;2023-05-10T14:24:16;3.88;;;1.50;;
17574;SDS011;8906;43.590;1.418;2023-05-10T14:26:43;5.75;;;1.52;;
17574;SDS011;8906;43.590;1.418;2023-05-10T14:29:12;5.63;;;1.50;;
17574;SDS011;8906;43.590;1.418;2023-05-10T14:31:39;5.63;;;1.13;;
17574;SDS011;8906;43.590;1.418;2023-05-10T14:34:06;1.75;;;0.90;;
17574;SDS011;8906;43.590;1.418;2023-05-10T14:36:33;4.50;;;1.75;;
17574;SDS011;8906;43.590;1.418;2023-05-10T14:39:00;2.42;;;0.98;;
17574;SDS011;8906;43.590;1.418;2023-05-10T14:41:27;2.92;;;1.38;;
17574;SDS011;8906;43.590;1.418;2023-05-10T14:43:55;1.80;;;0.88;;
17574;SDS011;8906;43.590;1.418;2023-05-10T14:46:23;1.52;;;0.95;;
17574;SDS011;8906;43.590;1.418;2023-05-10T14:48:50;5.70;;;1.08;;
17574;SDS011;8906;43.590;1.418;2023-05-10T14:51:17;3.55;;;1.10;;
17574;SDS011;8906;43.590;1.418;2023-05-10T14:53:46;4.28;;;1.55;;
17574;SDS011;8906;43.590;1.418;2023-05-10T14:56:14;2.85;;;1.73;;
17574;SDS011;8906;43.590;1.418;2023-05-10T14:58:40;2.15;;;1.38;;
17574;SDS011;8906;43.590;1.418;2023-05-10T15:01:07;8.05;;;2.28;;
17574;SDS011;8906;43.590;1.418;2023-05-10T15:03:36;2.85;;;1.50;;
17574;SDS011;8906;43.590;1.418;2023-05-10T15:06:03;1.85;;;1.25;;
17574;SDS011;8906;43.590;1.418;2023-05-10T15:08:30;3.97;;;1.02;;
17574;SDS011;8906;43.590;1.418;2023-05-10T15:10:57;3.72;;;0.90;;
17574;SDS011;8906;43.590;1.418;2023-05-10T15:13:24;1.48;;;1.20;;
17574;SDS011;8906;43.590;1.418;2023-05-10T15:15:51;6.32;;;1.92;;
17574;SDS011;8906;43.590;1.418;2023-05-10T15:18:18;4.25;;;2.22;;
17574;SDS011;8906;43.590;1.418;2023-05-10T15:20:46;3.22;;;1.48;;